Time;durP1;ratioP1;P1;durP2;ratioP2;P2;SDS_P1;SDS_P2;PMS_P1;PMS_P2;Temp;Humidity;BMP_temperature;BMP_pressure;BME280_temperature;BME280_humidity;BME280_pressure;Samples;Min_cycle;Max_cycle;Signal;HPM_P1;HPM_P2
2022/11/03 00:01:50;;;;;;;6.20;1.60;;;;;;;;;;4985731;28;20265;-68
2022/11/03 00:04:16;;;;;;;27.30;2.35;;;;;;;;;;4989267;28;20633;-67
2022/11/03 00:06:42;;;;;;;12.98;1.92;;;;;;;;;;4988130;28;20076;-68
2022/11/03 00:09:10;;;;;;;10.52;2.05;;;;;;;;;;4989969;28;20411;-70
2022/11/03 00:11:37;;;;;;;8.45;0.95;;;;;;;;;;4989660;28;20022;-67
2022/11/03 00:14:02;;;;;;;18.80;2.28;;;;;;;;;;4985850;28;20089;-69
2022/11/03 00:16:28;;;;;;;20.63;2.95;;;;;;;;;;4984577;28;20129;-69
2022/11/03 00:18:53;;;;;;;11.80;1.58;;;;;;;;;;4985169;28;20041;-68
2022/11/03 00:21:18;;;;;;;9.48;2.00;;;;;;;;;;4986485;28;20027;-68
2022/11/03 00:23:44;;;;;;;16.13;2.90;;;;;;;;;;4987021;28;20665;-69
2022/11/03 00:26:09;;;;;;;15.18;2.65;;;;;;;;;;4988525;28;20312;-68
2022/11/03 00:28:35;;;;;;;6.43;2.83;;;;;;;;;;4988889;28;20096;-69
2022/11/03 00:31:01;;;;;;;7.82;2.17;;;;;;;;;;4985922;28;20820;-68
2022/11/03 00:33:29;;;;;;;18.95;2.25;;;;;;;;;;4988684;28;20109;-68
2022/11/03 00:35:58;;;;;;;11.23;2.22;;;;;;;;;;4984540;28;20034;-67
2022/11/03 00:38:23;;;;;;;14.70;2.58;;;;;;;;;;4982915;28;20041;-68
2022/11/03 00:40:52;;;;;;;24.27;2.83;;;;;;;;;;4984733;28;20460;-68
2022/11/03 00:43:17;;;;;;;16.80;2.33;;;;;;;;;;4986958;28;20026;-67
2022/11/03 00:45:43;;;;;;;6.00;1.73;;;;;;;;;;4985308;28;20096;-69
2022/11/03 00:50:52;;;;;;;10.70;1.50;;;;;;;;;;4987464;28;20323;-68
2022/11/03 00:53:17;;;;;;;12.40;2.35;;;;;;;;;;4986773;28;20035;-68
2022/11/03 00:55:47;;;;;;;16.30;1.73;;;;;;;;;;4988831;28;20026;-67
2022/11/03 00:58:12;;;;;;;4.57;0.73;;;;;;;;;;4990592;28;20254;-67
2022/11/03 01:00:37;;;;;;;11.23;3.17;;;;;;;;;;4986860;28;20027;-68
2022/11/03 01:03:03;;;;;;;10.10;2.78;;;;;;;;;;4988832;28;20674;-67
2022/11/03 01:08:11;;;;;;;13.20;1.63;;;;;;;;;;4986536;28;20037;-68
2022/11/03 01:10:37;;;;;;;6.50;1.90;;;;;;;;;;4986837;28;20022;-68
2022/11/03 01:13:02;;;;;;;9.13;2.10;;;;;;;;;;4986755;28;20677;-68
2022/11/03 01:15:27;;;;;;;8.40;1.17;;;;;;;;;;4985331;28;20033;-69
2022/11/03 01:17:52;;;;;;;10.60;2.33;;;;;;;;;;4982831;28;20754;-68
2022/11/03 01:20:17;;;;;;;15.07;3.70;;;;;;;;;;4984325;28;20273;-67
2022/11/03 01:22:43;;;;;;;11.37;2.13;;;;;;;;;;4987856;28;20396;-67
2022/11/03 01:25:08;;;;;;;18.40;2.90;;;;;;;;;;4987985;28;20273;-68
2022/11/03 01:27:33;;;;;;;6.85;1.70;;;;;;;;;;4985868;28;20785;-68
2022/11/03 01:29:58;;;;;;;6.03;1.77;;;;;;;;;;4988418;28;20062;-67
2022/11/03 01:32:23;;;;;;;16.03;3.03;;;;;;;;;;4989734;28;20030;-67
2022/11/03 01:34:49;;;;;;;22.00;2.53;;;;;;;;;;4987910;28;20439;-69
2022/11/03 01:37:14;;;;;;;6.27;1.40;;;;;;;;;;4990999;28;20273;-68
2022/11/03 01:39:39;;;;;;;12.30;2.03;;;;;;;;;;4990545;28;20372;-69
2022/11/03 01:42:04;;;;;;;9.93;1.75;;;;;;;;;;4987792;28;20281;-68
2022/11/03 01:44:29;;;;;;;4.93;1.43;;;;;;;;;;4986566;28;20018;-69
2022/11/03 01:46:58;;;;;;;10.30;2.40;;;;;;;;;;4991034;28;20306;-67
2022/11/03 01:49:49;;;;;;;7.32;1.02;;;;;;;;;;4989040;28;20347;-67
2022/11/03 01:52:35;;;;;;;4.63;1.52;;;;;;;;;;4972778;28;20547;-67
2022/11/03 01:55:06;;;;;;;7.05;1.27;;;;;;;;;;4989239;28;20062;-68
2022/11/03 01:57:36;;;;;;;13.43;2.80;;;;;;;;;;4990176;28;20682;-67
2022/11/03 02:00:03;;;;;;;4.65;1.38;;;;;;;;;;4988401;28;20057;-67
2022/11/03 02:02:29;;;;;;;14.65;2.10;;;;;;;;;;4981151;28;20084;-68
2022/11/03 02:04:55;;;;;;;5.93;2.03;;;;;;;;;;4990094;28;20030;-68
2022/11/03 02:07:23;;;;;;;12.35;2.10;;;;;;;;;;4990183;28;20023;-67
2022/11/03 02:09:48;;;;;;;10.70;1.85;;;;;;;;;;4991317;28;20449;-68
2022/11/03 02:12:14;;;;;;;10.00;1.40;;;;;;;;;;4989738;28;20109;-68
2022/11/03 02:14:42;;;;;;;12.27;1.98;;;;;;;;;;4985048;28;20348;-68
2022/11/03 02:17:09;;;;;;;5.38;1.40;;;;;;;;;;4984859;28;20552;-68
2022/11/03 02:19:38;;;;;;;15.43;2.42;;;;;;;;;;4990367;28;20022;-68
2022/11/03 02:22:22;;;;;;;5.35;1.77;;;;;;;;;;4987761;28;20060;-68
2022/11/03 02:24:51;;;;;;;6.10;0.82;;;;;;;;;;4987012;28;20022;-68
2022/11/03 02:27:17;;;;;;;16.27;1.27;;;;;;;;;;4991171;28;20070;-68
2022/11/03 02:29:43;;;;;;;14.23;2.85;;;;;;;;;;4987908;28;20064;-69
2022/11/03 02:32:28;;;;;;;15.27;2.28;;;;;;;;;;4988672;28;20023;-68
2022/11/03 02:35:12;;;;;;;8.52;2.03;;;;;;;;;;4989873;28;20050;-67
2022/11/03 02:37:41;;;;;;;5.10;1.45;;;;;;;;;;4987925;28;20073;-67
2022/11/03 02:40:13;;;;;;;6.03;1.45;;;;;;;;;;4988184;28;20483;-67
2022/11/03 02:42:40;;;;;;;6.43;1.65;;;;;;;;;;4986069;28;20037;-68
2022/11/03 02:45:06;;;;;;;14.05;1.70;;;;;;;;;;4991091;28;20631;-67
2022/11/03 02:47:33;;;;;;;12.30;1.98;;;;;;;;;;4984107;28;20030;-69
2022/11/03 02:49:58;;;;;;;5.32;1.60;;;;;;;;;;4989297;28;20695;-69
2022/11/03 02:52:35;;;;;;;13.55;2.30;;;;;;;;;;4984888;28;20034;-68
2022/11/03 02:55:04;;;;;;;3.15;1.10;;;;;;;;;;4988929;28;20022;-67
2022/11/03 02:57:31;;;;;;;4.72;1.00;;;;;;;;;;4989866;28;20081;-67
2022/11/03 02:59:58;;;;;;;10.82;1.98;;;;;;;;;;4988370;28;20038;-69
2022/11/03 03:02:28;;;;;;;9.10;1.73;;;;;;;;;;4984393;28;20026;-69
2022/11/03 03:04:55;;;;;;;11.90;2.22;;;;;;;;;;4988651;28;20073;-67
2022/11/03 03:07:23;;;;;;;17.05;1.35;;;;;;;;;;4989885;28;20030;-68
2022/11/03 03:09:52;;;;;;;5.93;0.73;;;;;;;;;;4984034;28;20442;-68
2022/11/03 03:12:18;;;;;;;13.35;2.22;;;;;;;;;;4985683;28;20382;-68
2022/11/03 03:14:44;;;;;;;20.35;1.95;;;;;;;;;;4981668;28;20084;-69
2022/11/03 03:17:32;;;;;;;4.93;1.15;;;;;;;;;;4984901;28;20018;-68
2022/11/03 03:19:58;;;;;;;8.10;1.55;;;;;;;;;;4979048;28;20403;-68
2022/11/03 03:22:27;;;;;;;16.00;1.83;;;;;;;;;;4983651;28;20034;-68
2022/11/03 03:25:04;;;;;;;7.43;1.55;;;;;;;;;;4987072;28;20038;-68
2022/11/03 03:27:31;;;;;;;6.32;1.38;;;;;;;;;;4984152;28;20026;-68
2022/11/03 03:30:01;;;;;;;11.45;1.20;;;;;;;;;;4982905;28;20030;-67
2022/11/03 03:32:29;;;;;;;2.58;0.55;;;;;;;;;;4984974;28;20025;-68
2022/11/03 03:34:55;;;;;;;12.75;1.50;;;;;;;;;;4986646;28;20034;-67
2022/11/03 03:37:22;;;;;;;4.68;1.85;;;;;;;;;;4988611;28;20022;-67
2022/11/03 03:39:50;;;;;;;16.08;2.47;;;;;;;;;;4986020;28;20015;-67
2022/11/03 03:42:16;;;;;;;10.27;1.80;;;;;;;;;;4984891;28;20041;-69
2022/11/03 03:44:42;;;;;;;15.52;1.63;;;;;;;;;;4983923;28;21300;-68
2022/11/03 03:47:21;;;;;;;16.50;1.85;;;;;;;;;;4987117;28;20088;-67
2022/11/03 03:49:47;;;;;;;13.27;2.63;;;;;;;;;;4986060;28;20023;-67
2022/11/03 03:52:12;;;;;;;12.73;2.05;;;;;;;;;;4984563;28;20037;-67
2022/11/03 03:54:37;;;;;;;12.82;2.53;;;;;;;;;;4983682;28;20383;-69
2022/11/03 03:57:04;;;;;;;3.50;1.13;;;;;;;;;;4983725;28;20030;-67
2022/11/03 03:59:29;;;;;;;5.38;1.60;;;;;;;;;;4982724;28;20285;-68
2022/11/03 04:01:54;;;;;;;22.02;2.80;;;;;;;;;;4987746;28;20076;-69
2022/11/03 04:04:19;;;;;;;14.40;1.35;;;;;;;;;;4989196;28;20450;-67
2022/11/03 04:06:45;;;;;;;14.52;2.80;;;;;;;;;;4985168;28;20022;-68
2022/11/03 04:09:10;;;;;;;14.15;2.55;;;;;;;;;;4987136;28;20026;-67
2022/11/03 04:22:31;;;;;;;18.02;2.80;;;;;;;;;;4986522;28;20049;-70
2022/11/03 04:24:58;;;;;;;27.55;1.20;;;;;;;;;;4981633;28;20535;-68
2022/11/03 04:27:33;;;;;;;10.90;1.48;;;;;;;;;;4986714;28;20076;-70
2022/11/03 04:30:18;;;;;;;12.95;2.45;;;;;;;;;;4984596;28;20108;-68
2022/11/03 04:32:44;;;;;;;14.25;2.33;;;;;;;;;;4985658;28;20459;-69
2022/11/03 04:35:15;;;;;;;4.25;1.13;;;;;;;;;;4986043;28;20034;-71
2022/11/03 04:37:40;;;;;;;7.68;1.42;;;;;;;;;;4984713;28;20026;-70
2022/11/03 04:40:08;;;;;;;15.90;2.50;;;;;;;;;;4983394;28;20064;-68
2022/11/03 04:42:34;;;;;;;13.82;2.35;;;;;;;;;;4984505;28;20360;-68
2022/11/03 04:45:00;;;;;;;25.88;3.63;;;;;;;;;;4986026;28;20594;-70
2022/11/03 04:47:25;;;;;;;9.35;2.55;;;;;;;;;;4988229;28;20038;-69
2022/11/03 04:49:50;;;;;;;9.70;2.15;;;;;;;;;;4988029;28;20025;-70
2022/11/03 04:52:19;;;;;;;11.07;2.30;;;;;;;;;;4986401;28;20030;-69
2022/11/03 04:54:45;;;;;;;1.58;0.88;;;;;;;;;;4985976;28;20800;-67
2022/11/03 04:57:12;;;;;;;8.40;1.23;;;;;;;;;;4988079;28;20479;-70
2022/11/03 04:59:38;;;;;;;4.60;1.75;;;;;;;;;;4988553;28;20022;-69
2022/11/03 05:02:08;;;;;;;15.10;2.28;;;;;;;;;;4987202;28;20038;-70
2022/11/03 05:04:33;;;;;;;9.88;2.35;;;;;;;;;;4992029;28;20394;-70
2022/11/03 05:06:58;;;;;;;17.83;2.28;;;;;;;;;;4991934;28;20033;-67
2022/11/03 05:09:26;;;;;;;11.13;2.27;;;;;;;;;;4991595;28;20027;-70
2022/11/03 05:11:51;;;;;;;16.02;3.08;;;;;;;;;;4986412;28;20872;-71
2022/11/03 05:14:21;;;;;;;13.38;2.38;;;;;;;;;;4990056;28;20101;-70
2022/11/03 05:16:48;;;;;;;3.33;1.90;;;;;;;;;;4988415;28;20018;-69
2022/11/03 05:19:25;;;;;;;15.40;3.30;;;;;;;;;;4989868;28;20027;-70
2022/11/03 05:21:51;;;;;;;12.25;3.08;;;;;;;;;;4987803;28;20466;-70
2022/11/03 05:24:17;;;;;;;19.08;2.60;;;;;;;;;;4992353;28;20033;-71
2022/11/03 05:26:43;;;;;;;7.60;2.38;;;;;;;;;;4989266;28;20035;-70
2022/11/03 05:29:17;;;;;;;17.10;3.80;;;;;;;;;;4988890;28;20027;-70
2022/11/03 05:31:42;;;;;;;8.35;1.75;;;;;;;;;;4989856;28;20026;-68
2022/11/03 05:34:10;;;;;;;10.82;1.90;;;;;;;;;;4992131;28;20459;-70
2022/11/03 05:36:36;;;;;;;12.10;2.45;;;;;;;;;;4987474;28;20030;-70
2022/11/03 05:39:16;;;;;;;12.77;1.75;;;;;;;;;;4990373;28;20022;-70
2022/11/03 05:41:41;;;;;;;17.15;1.60;;;;;;;;;;4989983;28;20539;-70
2022/11/03 05:44:25;;;;;;;9.20;1.65;;;;;;;;;;4991279;28;20022;-70
2022/11/03 05:46:50;;;;;;;17.38;3.30;;;;;;;;;;4989250;28;20018;-70
2022/11/03 05:49:15;;;;;;;8.93;1.57;;;;;;;;;;4991254;28;20045;-70
2022/11/03 05:51:42;;;;;;;6.73;2.17;;;;;;;;;;4989974;28;20388;-70
2022/11/03 05:54:11;;;;;;;7.18;1.92;;;;;;;;;;4990606;28;20360;-70
2022/11/03 05:56:36;;;;;;;16.73;4.68;;;;;;;;;;4991743;28;20080;-70
2022/11/03 05:59:03;;;;;;;4.03;1.45;;;;;;;;;;4992137;28;20097;-71
2022/11/03 06:01:30;;;;;;;6.28;1.45;;;;;;;;;;4986593;28;20030;-70
2022/11/03 06:03:56;;;;;;;5.85;0.88;;;;;;;;;;4990827;28;20471;-70
2022/11/03 06:06:27;;;;;;;7.95;2.30;;;;;;;;;;4989960;28;20042;-70
2022/11/03 06:08:52;;;;;;;11.00;2.15;;;;;;;;;;4990891;28;20025;-70
2022/11/03 06:11:25;;;;;;;3.47;1.17;;;;;;;;;;4989958;28;20137;-70
2022/11/03 06:13:51;;;;;;;3.00;1.10;;;;;;;;;;4987862;28;20022;-69
2022/11/03 06:16:30;;;;;;;3.70;1.10;;;;;;;;;;4986734;28;20110;-70
2022/11/03 06:18:55;;;;;;;3.90;1.03;;;;;;;;;;4988319;28;20285;-70
2022/11/03 06:21:22;;;;;;;10.98;1.67;;;;;;;;;;4988670;28;20033;-72
2022/11/03 06:23:48;;;;;;;7.72;1.52;;;;;;;;;;4988064;28;20034;-69
2022/11/03 06:26:24;;;;;;;10.63;1.58;;;;;;;;;;4986486;28;20046;-68
2022/11/03 06:28:50;;;;;;;12.57;2.25;;;;;;;;;;4989487;28;20026;-69
2022/11/03 06:31:21;;;;;;;20.48;2.75;;;;;;;;;;4985215;28;20085;-68
2022/11/03 06:33:47;;;;;;;9.32;1.85;;;;;;;;;;4987339;28;20022;-70
2022/11/03 06:36:17;;;;;;;5.68;1.20;;;;;;;;;;4986861;28;20529;-70
2022/11/03 06:38:44;;;;;;;9.18;1.17;;;;;;;;;;4985628;28;20037;-69
2022/11/03 06:41:16;;;;;;;2.22;0.90;;;;;;;;;;4987148;28;20523;-70
2022/11/03 06:43:42;;;;;;;4.35;1.55;;;;;;;;;;4985258;28;20380;-68
2022/11/03 06:46:12;;;;;;;7.47;1.85;;;;;;;;;;4985441;28;20026;-70
2022/11/03 06:48:38;;;;;;;10.82;1.60;;;;;;;;;;4982158;28;20043;-68
2022/11/03 06:51:13;;;;;;;8.75;1.80;;;;;;;;;;4985543;28;20078;-70
2022/11/03 06:53:38;;;;;;;10.07;2.20;;;;;;;;;;4985191;28;20038;-68
2022/11/03 06:56:08;;;;;;;10.80;2.70;;;;;;;;;;4988478;28;20037;-69
2022/11/03 06:58:35;;;;;;;9.23;1.45;;;;;;;;;;4988595;28;20041;-70
2022/11/03 07:01:01;;;;;;;7.95;1.75;;;;;;;;;;4986569;28;20101;-70
2022/11/03 07:03:31;;;;;;;7.30;1.70;;;;;;;;;;4987999;28;20018;-70
2022/11/03 07:05:58;;;;;;;9.35;2.13;;;;;;;;;;4980509;28;20108;-70
2022/11/03 07:08:26;;;;;;;14.00;2.85;;;;;;;;;;4990381;28;20032;-67
2022/11/03 07:11:02;;;;;;;6.45;1.70;;;;;;;;;;4989329;28;20026;-70
2022/11/03 07:13:29;;;;;;;9.00;1.80;;;;;;;;;;4988160;28;20502;-69
2022/11/03 07:15:54;;;;;;;9.63;1.88;;;;;;;;;;4985287;28;20022;-70
2022/11/03 07:18:21;;;;;;;6.25;2.03;;;;;;;;;;4988292;28;20081;-70
2022/11/03 07:20:47;;;;;;;12.80;1.88;;;;;;;;;;4981805;28;20029;-70
2022/11/03 07:23:14;;;;;;;7.00;1.20;;;;;;;;;;4983462;28;20050;-69
2022/11/03 07:25:40;;;;;;;10.45;2.10;;;;;;;;;;4981506;28;20409;-70
2022/11/03 07:28:05;;;;;;;8.00;1.63;;;;;;;;;;4983317;28;20034;-70
2022/11/03 07:30:33;;;;;;;10.77;2.60;;;;;;;;;;4982170;28;20301;-70
2022/11/03 07:33:10;;;;;;;11.15;1.85;;;;;;;;;;4982378;28;20269;-70
2022/11/03 07:35:36;;;;;;;15.68;2.42;;;;;;;;;;4985600;28;20030;-68
2022/11/03 07:38:10;;;;;;;6.45;0.88;;;;;;;;;;4987860;28;20698;-68
2022/11/03 07:40:36;;;;;;;6.97;1.33;;;;;;;;;;4987476;28;20351;-68
2022/11/03 07:43:10;;;;;;;14.38;2.55;;;;;;;;;;4986279;28;20072;-68
2022/11/03 07:45:38;;;;;;;7.38;1.08;;;;;;;;;;4987131;28;20022;-67
2022/11/03 07:48:23;;;;;;;7.65;1.50;;;;;;;;;;4984724;28;20041;-68
2022/11/03 07:50:59;;;;;;;11.98;2.38;;;;;;;;;;4985022;28;20560;-69
2022/11/03 07:53:35;;;;;;;5.38;1.88;;;;;;;;;;4985236;28;20332;-67
2022/11/03 07:56:01;;;;;;;16.02;1.65;;;;;;;;;;4985946;28;20026;-69
2022/11/03 07:58:34;;;;;;;9.68;1.45;;;;;;;;;;4982169;28;20028;-66
2022/11/03 08:01:00;;;;;;;9.70;1.58;;;;;;;;;;4985308;28;20403;-68
2022/11/03 08:03:29;;;;;;;17.05;1.67;;;;;;;;;;4986859;28;20105;-67
2022/11/03 08:05:54;;;;;;;1.10;0.50;;;;;;;;;;4988894;28;20124;-67
2022/11/03 08:08:19;;;;;;;15.40;2.40;;;;;;;;;;4987382;28;20459;-68
2022/11/03 08:10:45;;;;;;;12.53;2.30;;;;;;;;;;4987431;28;20450;-68
2022/11/03 08:13:10;;;;;;;8.23;1.27;;;;;;;;;;4985554;28;20304;-68
2022/11/03 08:15:35;;;;;;;6.80;1.80;;;;;;;;;;4985794;28;20285;-68
2022/11/03 08:18:00;;;;;;;8.33;2.03;;;;;;;;;;4983513;28;20285;-68
2022/11/03 08:20:25;;;;;;;15.45;2.67;;;;;;;;;;4981388;28;20308;-68
2022/11/03 08:22:51;;;;;;;11.85;2.17;;;;;;;;;;4985153;28;20026;-68
2022/11/03 08:25:16;;;;;;;6.63;1.13;;;;;;;;;;4983543;28;20472;-70
2022/11/03 08:27:41;;;;;;;5.80;1.57;;;;;;;;;;4982961;28;20274;-67
2022/11/03 08:30:06;;;;;;;8.43;2.03;;;;;;;;;;4982161;28;20890;-69
2022/11/03 08:32:31;;;;;;;21.00;2.80;;;;;;;;;;4985451;28;20277;-67
2022/11/03 08:34:57;;;;;;;11.43;2.35;;;;;;;;;;4988033;28;20018;-68
2022/11/03 08:37:22;;;;;;;8.55;1.60;;;;;;;;;;4988566;28;20045;-68
2022/11/03 08:39:47;;;;;;;7.50;1.63;;;;;;;;;;4989160;28;20034;-68
2022/11/03 08:42:12;;;;;;;5.20;1.47;;;;;;;;;;4988747;28;20772;-68
2022/11/03 08:44:37;;;;;;;7.83;1.40;;;;;;;;;;4980935;28;20413;-68
2022/11/03 08:47:02;;;;;;;10.87;1.80;;;;;;;;;;4988367;28;20273;-68
2022/11/03 08:49:28;;;;;;;9.18;1.40;;;;;;;;;;4986110;28;20770;-67
2022/11/03 08:51:53;;;;;;;5.00;2.13;;;;;;;;;;4987314;28;20057;-67
2022/11/03 08:54:18;;;;;;;18.37;3.03;;;;;;;;;;4984824;28;20766;-66
2022/11/03 08:56:45;;;;;;;3.40;0.57;;;;;;;;;;4983118;28;20444;-70
2022/11/03 08:59:10;;;;;;;6.72;2.25;;;;;;;;;;4984825;28;20666;-68
2022/11/03 09:01:35;;;;;;;7.73;1.80;;;;;;;;;;4983481;28;20037;-69
2022/11/03 09:04:00;;;;;;;8.13;0.87;;;;;;;;;;4986625;28;20296;-68
2022/11/03 09:06:25;;;;;;;21.57;1.63;;;;;;;;;;4988047;28;20643;-70
2022/11/03 09:08:51;;;;;;;4.90;1.53;;;;;;;;;;4987795;28;20277;-70
2022/11/03 09:11:16;;;;;;;5.70;1.33;;;;;;;;;;4988172;28;20277;-70
2022/11/03 09:13:41;;;;;;;8.20;1.87;;;;;;;;;;4985962;28;20038;-70
2022/11/03 09:16:06;;;;;;;8.52;1.67;;;;;;;;;;4985345;28;20312;-70
2022/11/03 09:18:32;;;;;;;4.45;1.38;;;;;;;;;;4983632;28;20102;-69
2022/11/03 09:20:58;;;;;;;2.03;0.93;;;;;;;;;;4987052;28;20467;-69
2022/11/03 09:23:23;;;;;;;5.33;1.10;;;;;;;;;;4988821;28;20073;-69
2022/11/03 09:25:48;;;;;;;6.77;2.07;;;;;;;;;;4987258;28;20313;-69
2022/11/03 09:28:13;;;;;;;8.60;1.90;;;;;;;;;;4986367;28;20281;-68
2022/11/03 09:30:38;;;;;;;14.10;1.70;;;;;;;;;;4983589;28;20336;-70
2022/11/03 09:33:03;;;;;;;13.50;1.43;;;;;;;;;;4983349;28;20838;-69
2022/11/03 09:35:29;;;;;;;7.15;1.20;;;;;;;;;;4981151;28;20312;-70
2022/11/03 09:37:54;;;;;;;10.47;1.70;;;;;;;;;;4983333;28;20031;-70
2022/11/03 09:40:20;;;;;;;3.73;0.90;;;;;;;;;;4987358;28;20278;-70
2022/11/03 09:42:46;;;;;;;8.80;1.60;;;;;;;;;;4987175;28;20030;-67
2022/11/03 09:45:11;;;;;;;6.75;1.08;;;;;;;;;;4987690;28;20030;-70
2022/11/03 09:47:40;;;;;;;7.13;1.75;;;;;;;;;;4984536;28;20023;-70
2022/11/03 09:50:10;;;;;;;11.30;1.80;;;;;;;;;;4988918;28;20034;-70
2022/11/03 09:52:35;;;;;;;5.97;1.38;;;;;;;;;;4992825;28;20569;-70
2022/11/03 09:55:00;;;;;;;8.25;2.10;;;;;;;;;;4988441;28;20026;-68
2022/11/03 09:57:26;;;;;;;3.75;0.77;;;;;;;;;;4990782;28;20018;-70
2022/11/03 09:59:52;;;;;;;12.75;1.55;;;;;;;;;;4984899;28;20072;-69
2022/11/03 10:02:30;;;;;;;7.78;1.17;;;;;;;;;;4988408;28;20113;-71
2022/11/03 10:04:56;;;;;;;4.82;1.45;;;;;;;;;;4989221;28;20027;-68
2022/11/03 10:07:22;;;;;;;6.32;1.85;;;;;;;;;;4991834;28;20101;-69
2022/11/03 10:09:49;;;;;;;4.95;1.77;;;;;;;;;;4988957;28;20122;-70
2022/11/03 10:12:14;;;;;;;2.70;0.63;;;;;;;;;;4986893;28;20022;-70
2022/11/03 10:14:41;;;;;;;3.88;1.35;;;;;;;;;;5017294;23;20057;-66
2022/11/03 10:17:09;;;;;;;4.68;1.38;;;;;;;;;;5010385;28;20030;-66
2022/11/03 10:19:34;;;;;;;5.53;1.25;;;;;;;;;;5004652;28;20489;-66
2022/11/03 10:22:00;;;;;;;11.88;1.35;;;;;;;;;;5008629;28;20018;-67
2022/11/03 10:24:25;;;;;;;6.47;1.15;;;;;;;;;;4999138;28;20022;-67
2022/11/03 10:26:51;;;;;;;5.83;1.37;;;;;;;;;;4983982;28;20027;-67
2022/11/03 10:29:26;;;;;;;10.43;2.03;;;;;;;;;;4985163;28;20273;-66
2022/11/03 10:31:53;;;;;;;15.95;2.15;;;;;;;;;;4983469;28;20023;-66
2022/11/03 10:34:27;;;;;;;4.80;0.82;;;;;;;;;;4981435;28;20101;-66
2022/11/03 10:37:11;;;;;;;7.10;2.33;;;;;;;;;;4987866;28;20026;-66
2022/11/03 10:39:36;;;;;;;6.82;2.05;;;;;;;;;;4985441;28;20076;-67
2022/11/03 10:42:01;;;;;;;5.33;1.10;;;;;;;;;;4990529;28;20058;-66
2022/11/03 10:44:27;;;;;;;12.20;1.80;;;;;;;;;;4988400;28;20272;-66
2022/11/03 10:46:56;;;;;;;11.60;1.20;;;;;;;;;;4989393;28;20285;-67
2022/11/03 10:49:21;;;;;;;2.55;0.57;;;;;;;;;;4990452;28;20026;-67
2022/11/03 10:51:48;;;;;;;2.75;1.33;;;;;;;;;;4987481;28;20037;-66
2022/11/03 10:54:15;;;;;;;10.02;1.83;;;;;;;;;;4985247;28;20517;-66
2022/11/03 10:56:40;;;;;;;3.60;0.75;;;;;;;;;;4986203;28;20597;-66
2022/11/03 10:59:10;;;;;;;9.57;2.50;;;;;;;;;;4984934;28;20026;-66
2022/11/03 11:01:36;;;;;;;14.60;1.30;;;;;;;;;;4990373;28;20467;-66
2022/11/03 11:04:03;;;;;;;6.85;1.30;;;;;;;;;;4985951;28;20022;-66
2022/11/03 11:06:28;;;;;;;1.88;0.88;;;;;;;;;;4983410;28;20038;-66
2022/11/03 11:08:58;;;;;;;9.93;1.08;;;;;;;;;;4987456;28;20471;-66
2022/11/03 11:11:24;;;;;;;15.40;2.03;;;;;;;;;;4985173;28;20027;-66
2022/11/03 11:14:07;;;;;;;8.52;1.92;;;;;;;;;;4986849;28;20394;-66
2022/11/03 11:16:50;;;;;;;6.75;1.02;;;;;;;;;;4982563;28;20241;-66
2022/11/03 11:19:15;;;;;;;14.45;2.22;;;;;;;;;;4985041;28;20138;-66
2022/11/03 11:21:40;;;;;;;3.37;0.73;;;;;;;;;;4986483;28;20674;-66
2022/11/03 11:24:08;;;;;;;8.23;1.60;;;;;;;;;;4987779;28;20281;-66
2022/11/03 11:26:34;;;;;;;5.30;1.65;;;;;;;;;;4986967;28;20019;-66
2022/11/03 11:29:08;;;;;;;6.97;1.30;;;;;;;;;;4985225;28;20038;-66
2022/11/03 11:31:42;;;;;;;9.52;1.48;;;;;;;;;;4988759;28;20355;-66
2022/11/03 11:34:07;;;;;;;8.38;1.27;;;;;;;;;;4989087;28;20026;-66
2022/11/03 11:36:32;;;;;;;10.23;2.22;;;;;;;;;;4989906;28;20022;-66
2022/11/03 11:38:58;;;;;;;4.93;2.13;;;;;;;;;;4988702;28;20594;-66
2022/11/03 11:41:56;;;;;;;2.92;1.33;;;;;;;;;;4983869;28;20265;-66
2022/11/03 11:44:40;;;;;;;1.63;0.90;;;;;;;;;;4968700;28;20549;-66
2022/11/03 11:47:24;;;;;;;4.55;1.52;;;;;;;;;;4984755;28;20023;-66
2022/11/03 11:50:05;;;;;;;10.48;1.88;;;;;;;;;;4985348;28;20048;-66
2022/11/03 11:52:30;;;;;;;;;;;;;;;;;;4989752;28;20022;-66
2022/11/03 11:54:55;;;;;;;9.88;2.15;;;;;;;;;;4987375;28;19917;-66
2022/11/03 11:57:20;;;;;;;4.10;1.10;;;;;;;;;;4979289;28;20031;-65
2022/11/03 11:59:47;;;;;;;10.50;2.35;;;;;;;;;;4985778;28;20080;-65
2022/11/03 12:02:38;;;;;;;6.82;1.80;;;;;;;;;;4983771;28;20042;-66
2022/11/03 12:05:04;;;;;;;2.45;1.15;;;;;;;;;;4990074;28;20039;-66
2022/11/03 12:07:33;;;;;;;9.15;0.80;;;;;;;;;;4990311;28;20022;-66
2022/11/03 12:10:17;;;;;;;8.60;1.65;;;;;;;;;;4988852;28;20018;-65
2022/11/03 12:12:43;;;;;;;6.47;1.77;;;;;;;;;;4984584;28;20049;-67
2022/11/03 12:15:27;;;;;;;4.93;1.35;;;;;;;;;;4988840;28;20057;-67
2022/11/03 12:17:52;;;;;;;2.45;0.68;;;;;;;;;;4987013;28;20031;-66
2022/11/03 12:20:33;;;;;;;6.90;1.20;;;;;;;;;;4986898;28;20069;-67
2022/11/03 12:22:58;;;;;;;11.35;2.70;;;;;;;;;;4987740;28;20022;-67
2022/11/03 12:25:35;;;;;;;7.80;1.57;;;;;;;;;;4988970;28;20026;-67
2022/11/03 12:28:00;;;;;;;9.48;1.52;;;;;;;;;;4986325;28;20323;-67
2022/11/03 12:30:25;;;;;;;10.90;1.33;;;;;;;;;;4984571;28;20411;-67
2022/11/03 12:32:52;;;;;;;6.93;1.38;;;;;;;;;;4985124;28;20057;-66
2022/11/03 12:35:17;;;;;;;3.00;1.10;;;;;;;;;;4988168;28;20041;-67
2022/11/03 12:37:42;;;;;;;2.15;0.73;;;;;;;;;;4984286;28;20358;-66
2022/11/03 12:40:08;;;;;;;12.75;2.10;;;;;;;;;;4986186;28;20028;-67
2022/11/03 12:42:34;;;;;;;6.75;2.40;;;;;;;;;;4987841;28;20428;-67
2022/11/03 12:44:59;;;;;;;12.52;2.28;;;;;;;;;;4985378;28;20026;-67
2022/11/03 12:47:25;;;;;;;10.52;1.73;;;;;;;;;;4985699;28;20023;-67
2022/11/03 12:49:50;;;;;;;13.52;1.30;;;;;;;;;;4988636;28;20031;-66
2022/11/03 12:52:15;;;;;;;8.97;2.47;;;;;;;;;;4988762;28;20037;-67
2022/11/03 12:54:41;;;;;;;9.82;2.17;;;;;;;;;;4988718;28;20364;-67
2022/11/03 12:57:06;;;;;;;4.47;1.80;;;;;;;;;;4985591;28;20090;-66
2022/11/03 12:59:31;;;;;;;14.18;2.40;;;;;;;;;;4985961;28;20367;-67
2022/11/03 13:01:56;;;;;;;5.03;1.33;;;;;;;;;;4985536;28;20023;-67
2022/11/03 13:04:22;;;;;;;2.83;0.73;;;;;;;;;;4987763;28;20266;-67
2022/11/03 13:06:47;;;;;;;3.37;1.27;;;;;;;;;;4986004;28;20038;-67
2022/11/03 13:09:12;;;;;;;2.38;0.73;;;;;;;;;;4984328;28;20269;-67
2022/11/03 13:14:21;;;;;;;4.05;1.15;;;;;;;;;;4987576;28;20347;-67
2022/11/03 13:16:46;;;;;;;8.77;2.17;;;;;;;;;;4982425;28;20019;-66
2022/11/03 13:19:11;;;;;;;3.13;1.23;;;;;;;;;;4987968;28;20386;-67
2022/11/03 13:21:37;;;;;;;10.57;1.80;;;;;;;;;;4983379;28;20293;-67
2022/11/03 13:24:02;;;;;;;11.13;2.10;;;;;;;;;;4986717;28;20323;-66
2022/11/03 13:26:27;;;;;;;7.60;0.80;;;;;;;;;;4991152;28;20296;-67
2022/11/03 13:28:52;;;;;;;2.97;0.93;;;;;;;;;;4988363;28;20014;-67
2022/11/03 13:31:18;;;;;;;8.90;2.50;;;;;;;;;;4986945;28;20033;-66
2022/11/03 13:33:43;;;;;;;3.37;1.43;;;;;;;;;;4988948;28;20022;-67
2022/11/03 13:36:08;;;;;;;17.70;2.60;;;;;;;;;;4992108;28;20289;-67
2022/11/03 13:38:33;;;;;;;14.30;2.63;;;;;;;;;;4989965;28;20769;-66
2022/11/03 13:40:58;;;;;;;10.53;2.30;;;;;;;;;;4990483;28;20285;-67
2022/11/03 13:43:24;;;;;;;4.97;1.40;;;;;;;;;;4988710;28;20292;-67
2022/11/03 13:45:49;;;;;;;7.63;1.38;;;;;;;;;;4985380;28;20401;-67
2022/11/03 13:48:17;;;;;;;9.97;1.27;;;;;;;;;;4989314;28;20563;-67
2022/11/03 13:50:42;;;;;;;7.68;2.17;;;;;;;;;;4986493;28;20766;-67
2022/11/03 13:53:07;;;;;;;5.00;1.55;;;;;;;;;;4987064;28;20026;-66
2022/11/03 13:55:33;;;;;;;3.23;1.60;;;;;;;;;;4986798;28;20046;-67
2022/11/03 13:57:58;;;;;;;6.53;2.13;;;;;;;;;;4989379;28;20276;-67
2022/11/03 14:00:23;;;;;;;5.03;1.23;;;;;;;;;;4987881;28;20843;-66
2022/11/03 14:02:49;;;;;;;3.67;1.40;;;;;;;;;;4987934;28;20262;-66
2022/11/03 14:05:15;;;;;;;7.20;1.58;;;;;;;;;;4991216;28;20309;-67
2022/11/03 14:07:40;;;;;;;5.32;2.15;;;;;;;;;;4992607;28;20112;-66
2022/11/03 14:10:05;;;;;;;5.28;1.70;;;;;;;;;;4991199;28;20029;-66
2022/11/03 14:12:31;;;;;;;10.15;1.85;;;;;;;;;;4989935;28;20022;-67
2022/11/03 14:14:56;;;;;;;9.45;1.48;;;;;;;;;;4990517;28;20030;-67
2022/11/03 14:17:23;;;;;;;3.63;1.38;;;;;;;;;;4993247;28;20023;-66
2022/11/03 14:19:48;;;;;;;3.58;1.38;;;;;;;;;;4991178;28;20031;-67
2022/11/03 14:22:13;;;;;;;7.77;0.93;;;;;;;;;;4993116;28;20442;-67
2022/11/03 14:24:38;;;;;;;4.82;0.88;;;;;;;;;;4990190;28;20288;-67
2022/11/03 14:27:04;;;;;;;3.60;1.25;;;;;;;;;;4990055;28;20046;-66
2022/11/03 14:29:29;;;;;;;4.78;1.67;;;;;;;;;;4988007;28;20045;-66
2022/11/03 14:31:54;;;;;;;12.47;1.63;;;;;;;;;;4990122;28;20030;-67
2022/11/03 14:34:19;;;;;;;8.57;2.85;;;;;;;;;;4987299;28;20384;-67
2022/11/03 14:36:44;;;;;;;5.37;2.20;;;;;;;;;;4987565;28;20113;-67
2022/11/03 14:39:10;;;;;;;8.63;2.73;;;;;;;;;;4992596;28;20277;-67
2022/11/03 14:44:19;;;;;;;2.60;1.10;;;;;;;;;;4987124;28;20296;-67
2022/11/03 14:46:44;;;;;;;7.03;1.52;;;;;;;;;;4990074;28;20022;-67
2022/11/03 14:49:09;;;;;;;7.57;1.60;;;;;;;;;;4990397;28;20431;-68
2022/11/03 14:51:34;;;;;;;10.45;2.08;;;;;;;;;;4991891;28;20289;-68
2022/11/03 14:54:00;;;;;;;5.63;2.35;;;;;;;;;;4991903;28;20038;-67
2022/11/03 14:56:25;;;;;;;7.13;2.15;;;;;;;;;;4986745;28;20030;-68
2022/11/03 14:58:50;;;;;;;9.27;2.47;;;;;;;;;;4986616;28;20477;-67
2022/11/03 15:01:16;;;;;;;4.03;1.55;;;;;;;;;;4990110;28;20489;-67
2022/11/03 15:03:42;;;;;;;5.00;1.63;;;;;;;;;;4992222;28;20495;-67